[2025-01-10 00:00:00, 2025-01-10 23:59:59] previous next
| time | temperature | air pressure | humidity | solar radiation | wind speed |
|---|---|---|---|---|---|
| 2025-01-10 08:25:08 | -0.5 | 1010.0 | 99.0 | 17.6 | 1.0 |
| 2025-01-10 08:47:28 | -0.1 | 1010.0 | 98.0 | 22.0 | 0.3 |
| 2025-01-10 09:07:27 | 1.2 | 1010.4 | 96.0 | 26.4 | 0.6 |
| 2025-01-10 09:31:32 | 2.5 | 1010.7 | 92.0 | 31.7 | 0.0 |
| 2025-01-10 09:51:31 | 2.3 | 1010.7 | 91.0 | 33.2 | 0.6 |
| 2025-01-10 10:13:50 | 1.2 | 1011.0 | 93.0 | 0.0 | 0.0 |
| 2025-01-10 10:36:27 | 2.5 | 1010.7 | 91.0 | 42.5 | 0.8 |
| 2025-01-10 10:56:24 | 3.3 | 1010.7 | 88.0 | 44.6 | 1.4 |
| 2025-01-10 11:16:27 | 2.8 | 1011.0 | 88.0 | 65.1 | 1.5 |
| 2025-01-10 11:36:50 | 3.0 | 1010.7 | 88.0 | 104.0 | 0.6 |
| 2025-01-10 11:57:03 | 3.4 | 1010.7 | 86.0 | 146.6 | 2.1 |
| 2025-01-10 12:17:04 | 4.1 | 1010.7 | 85.0 | 183.8 | 1.3 |
| 2025-01-10 12:37:06 | 4.0 | 1010.7 | 86.0 | 199.4 | 0.8 |
| 2025-01-10 12:57:05 | 4.9 | 1010.7 | 83.0 | 198.5 | 1.3 |
| 2025-01-10 13:17:02 | 4.4 | 1010.7 | 84.0 | 191.8 | 1.1 |
| 2025-01-10 13:36:50 | 3.8 | 1010.7 | 85.0 | 183.3 | 0.3 |
| 2025-01-10 13:57:03 | 4.2 | 1010.7 | 84.0 | 167.2 | 0.8 |
| 2025-01-10 14:17:02 | 4.7 | 1011.0 | 85.0 | 140.7 | 0.0 |
| 2025-01-10 14:37:02 | 4.5 | 1011.0 | 83.0 | 112.6 | 1.7 |
| 2025-01-10 14:57:02 | 3.4 | 1011.0 | 87.0 | 77.2 | 1.1 |
CSV export: /station/IWELLEN5/data?period=20250110T000000/20250110T235959&format=csv&tz=GMT